sensor_id;sensor_type;location;lat;lon;timestamp;P1;durP1;ratioP1;P2;durP2;ratioP2
44670;SDS011;48397;53.016;-2.260;2023-02-28T00:01:33;17.13;;;8.07;;
44670;SDS011;48397;53.016;-2.260;2023-02-28T00:04:01;14.43;;;7.03;;
44670;SDS011;48397;53.016;-2.260;2023-02-28T00:06:31;15.27;;;6.80;;
44670;SDS011;48397;53.016;-2.260;2023-02-28T00:09:02;17.30;;;6.38;;
44670;SDS011;48397;53.016;-2.260;2023-02-28T00:11:32;13.68;;;6.10;;
44670;SDS011;48397;53.016;-2.260;2023-02-28T00:14:04;16.67;;;6.57;;
44670;SDS011;48397;53.016;-2.260;2023-02-28T00:16:38;13.02;;;5.93;;
44670;SDS011;48397;53.016;-2.260;2023-02-28T00:19:10;17.80;;;6.80;;
44670;SDS011;48397;53.016;-2.260;2023-02-28T00:21:41;15.55;;;6.80;;
44670;SDS011;48397;53.016;-2.260;2023-02-28T00:24:10;14.80;;;6.05;;
44670;SDS011;48397;53.016;-2.260;2023-02-28T00:26:40;14.88;;;6.15;;
44670;SDS011;48397;53.016;-2.260;2023-02-28T00:29:09;19.10;;;7.00;;
44670;SDS011;48397;53.016;-2.260;2023-02-28T00:31:38;17.92;;;6.70;;
44670;SDS011;48397;53.016;-2.260;2023-02-28T00:34:10;15.23;;;6.65;;
44670;SDS011;48397;53.016;-2.260;2023-02-28T00:39:08;13.77;;;5.55;;
44670;SDS011;48397;53.016;-2.260;2023-02-28T00:41:36;13.75;;;5.50;;
44670;SDS011;48397;53.016;-2.260;2023-02-28T00:44:06;10.27;;;4.60;;
44670;SDS011;48397;53.016;-2.260;2023-02-28T00:46:35;15.38;;;5.60;;
44670;SDS011;48397;53.016;-2.260;2023-02-28T00:49:03;9.85;;;4.53;;
44670;SDS011;48397;53.016;-2.260;2023-02-28T00:51:32;10.45;;;3.67;;
44670;SDS011;48397;53.016;-2.260;2023-02-28T00:54:03;10.23;;;4.00;;
44670;SDS011;48397;53.016;-2.260;2023-02-28T00:56:31;14.52;;;6.35;;
44670;SDS011;48397;53.016;-2.260;2023-02-28T00:58:59;15.90;;;7.32;;
44670;SDS011;48397;53.016;-2.260;2023-02-28T01:01:29;19.23;;;7.90;;
44670;SDS011;48397;53.016;-2.260;2023-02-28T01:03:58;20.67;;;6.85;;
44670;SDS011;48397;53.016;-2.260;2023-02-28T01:08:54;12.32;;;4.47;;
44670;SDS011;48397;53.016;-2.260;2023-02-28T01:11:25;15.32;;;6.30;;
44670;SDS011;48397;53.016;-2.260;2023-02-28T01:13:54;18.35;;;7.07;;
44670;SDS011;48397;53.016;-2.260;2023-02-28T01:16:22;19.33;;;7.38;;
44670;SDS011;48397;53.016;-2.260;2023-02-28T01:18:51;14.05;;;5.43;;
44670;SDS011;48397;53.016;-2.260;2023-02-28T01:21:20;11.93;;;5.53;;
44670;SDS011;48397;53.016;-2.260;2023-02-28T01:23:49;7.80;;;3.60;;
44670;SDS011;48397;53.016;-2.260;2023-02-28T01:26:21;10.70;;;4.50;;
44670;SDS011;48397;53.016;-2.260;2023-02-28T01:28:53;17.80;;;6.30;;
44670;SDS011;48397;53.016;-2.260;2023-02-28T01:31:23;14.65;;;5.47;;
44670;SDS011;48397;53.016;-2.260;2023-02-28T01:33:52;16.20;;;5.82;;
44670;SDS011;48397;53.016;-2.260;2023-02-28T01:36:22;12.77;;;5.68;;
44670;SDS011;48397;53.016;-2.260;2023-02-28T01:38:52;14.15;;;6.97;;
44670;SDS011;48397;53.016;-2.260;2023-02-28T01:41:25;14.35;;;6.03;;
44670;SDS011;48397;53.016;-2.260;2023-02-28T01:44:06;11.52;;;5.00;;
44670;SDS011;48397;53.016;-2.260;2023-02-28T01:46:55;16.35;;;5.60;;
44670;SDS011;48397;53.016;-2.260;2023-02-28T01:49:23;13.93;;;5.38;;
44670;SDS011;48397;53.016;-2.260;2023-02-28T01:51:53;13.52;;;5.93;;
44670;SDS011;48397;53.016;-2.260;2023-02-28T01:54:26;11.15;;;3.90;;
44670;SDS011;48397;53.016;-2.260;2023-02-28T01:56:58;14.52;;;5.85;;
44670;SDS011;48397;53.016;-2.260;2023-02-28T01:59:57;17.85;;;6.47;;
44670;SDS011;48397;53.016;-2.260;2023-02-28T02:02:38;9.40;;;4.43;;
44670;SDS011;48397;53.016;-2.260;2023-02-28T02:05:23;13.30;;;5.65;;
44670;SDS011;48397;53.016;-2.260;2023-02-28T02:07:55;14.15;;;5.90;;
44670;SDS011;48397;53.016;-2.260;2023-02-28T02:10:33;14.30;;;6.10;;
44670;SDS011;48397;53.016;-2.260;2023-02-28T02:13:16;13.93;;;5.35;;
44670;SDS011;48397;53.016;-2.260;2023-02-28T02:16:15;8.25;;;3.42;;
44670;SDS011;48397;53.016;-2.260;2023-02-28T02:18:47;8.88;;;3.85;;
44670;SDS011;48397;53.016;-2.260;2023-02-28T02:24:31;13.02;;;4.68;;
44670;SDS011;48397;53.016;-2.260;2023-02-28T02:30:17;8.85;;;3.05;;
44670;SDS011;48397;53.016;-2.260;2023-02-28T02:36:04;4.85;;;2.17;;
44670;SDS011;48397;53.016;-2.260;2023-02-28T02:38:46;6.95;;;2.92;;
44670;SDS011;48397;53.016;-2.260;2023-02-28T02:41:58;7.00;;;3.00;;
44670;SDS011;48397;53.016;-2.260;2023-02-28T02:44:43;9.68;;;3.10;;
44670;SDS011;48397;53.016;-2.260;2023-02-28T02:47:17;8.25;;;3.58;;
44670;SDS011;48397;53.016;-2.260;2023-02-28T02:49:52;9.43;;;3.88;;
44670;SDS011;48397;53.016;-2.260;2023-02-28T02:52:24;10.23;;;3.75;;
44670;SDS011;48397;53.016;-2.260;2023-02-28T02:54:58;9.57;;;3.70;;
44670;SDS011;48397;53.016;-2.260;2023-02-28T02:57:52;8.95;;;3.40;;
44670;SDS011;48397;53.016;-2.260;2023-02-28T03:00:23;7.63;;;3.05;;
44670;SDS011;48397;53.016;-2.260;2023-02-28T03:02:59;9.77;;;3.58;;
44670;SDS011;48397;53.016;-2.260;2023-02-28T03:05:34;11.30;;;3.42;;
44670;SDS011;48397;53.016;-2.260;2023-02-28T03:08:09;6.38;;;3.03;;
44670;SDS011;48397;53.016;-2.260;2023-02-28T03:15:49;9.55;;;3.40;;
44670;SDS011;48397;53.016;-2.260;2023-02-28T03:24:50;6.32;;;2.40;;
44670;SDS011;48397;53.016;-2.260;2023-02-28T03:30:14;12.13;;;3.97;;
44670;SDS011;48397;53.016;-2.260;2023-02-28T03:35:30;11.65;;;3.35;;
44670;SDS011;48397;53.016;-2.260;2023-02-28T03:38:13;9.63;;;3.67;;
44670;SDS011;48397;53.016;-2.260;2023-02-28T03:41:01;13.00;;;3.67;;
44670;SDS011;48397;53.016;-2.260;2023-02-28T03:43:35;7.93;;;3.05;;
44670;SDS011;48397;53.016;-2.260;2023-02-28T03:46:06;8.88;;;3.08;;
44670;SDS011;48397;53.016;-2.260;2023-02-28T03:48:44;11.32;;;3.72;;
44670;SDS011;48397;53.016;-2.260;2023-02-28T03:51:15;11.00;;;3.50;;
44670;SDS011;48397;53.016;-2.260;2023-02-28T03:53:49;10.75;;;3.40;;
44670;SDS011;48397;53.016;-2.260;2023-02-28T03:56:22;11.60;;;3.92;;
44670;SDS011;48397;53.016;-2.260;2023-02-28T04:01:40;9.98;;;3.53;;
44670;SDS011;48397;53.016;-2.260;2023-02-28T04:04:10;4.18;;;1.85;;
44670;SDS011;48397;53.016;-2.260;2023-02-28T04:06:40;8.75;;;3.22;;
44670;SDS011;48397;53.016;-2.260;2023-02-28T04:09:09;8.85;;;3.53;;
44670;SDS011;48397;53.016;-2.260;2023-02-28T04:11:38;13.90;;;4.05;;
44670;SDS011;48397;53.016;-2.260;2023-02-28T04:14:11;11.38;;;4.07;;
44670;SDS011;48397;53.016;-2.260;2023-02-28T04:16:40;10.55;;;3.65;;
44670;SDS011;48397;53.016;-2.260;2023-02-28T04:19:09;10.15;;;3.92;;
44670;SDS011;48397;53.016;-2.260;2023-02-28T04:21:39;13.75;;;4.32;;
44670;SDS011;48397;53.016;-2.260;2023-02-28T04:24:10;10.85;;;3.33;;
44670;SDS011;48397;53.016;-2.260;2023-02-28T04:26:42;14.27;;;4.88;;
44670;SDS011;48397;53.016;-2.260;2023-02-28T04:29:18;11.57;;;3.42;;
44670;SDS011;48397;53.016;-2.260;2023-02-28T04:31:49;12.93;;;5.18;;
44670;SDS011;48397;53.016;-2.260;2023-02-28T04:34:17;15.60;;;4.80;;
44670;SDS011;48397;53.016;-2.260;2023-02-28T04:36:46;13.38;;;5.25;;
44670;SDS011;48397;53.016;-2.260;2023-02-28T04:39:34;7.90;;;3.28;;
44670;SDS011;48397;53.016;-2.260;2023-02-28T04:42:03;13.10;;;5.13;;
44670;SDS011;48397;53.016;-2.260;2023-02-28T04:44:31;12.90;;;5.07;;
44670;SDS011;48397;53.016;-2.260;2023-02-28T04:46:59;10.80;;;4.28;;
44670;SDS011;48397;53.016;-2.260;2023-02-28T04:49:27;15.55;;;6.43;;
44670;SDS011;48397;53.016;-2.260;2023-02-28T04:51:55;11.93;;;4.63;;
44670;SDS011;48397;53.016;-2.260;2023-02-28T04:54:23;14.52;;;4.57;;
44670;SDS011;48397;53.016;-2.260;2023-02-28T04:56:51;13.27;;;5.53;;
44670;SDS011;48397;53.016;-2.260;2023-02-28T04:59:19;13.85;;;5.15;;
44670;SDS011;48397;53.016;-2.260;2023-02-28T05:04:15;16.25;;;6.40;;
44670;SDS011;48397;53.016;-2.260;2023-02-28T05:06:44;19.17;;;6.88;;
44670;SDS011;48397;53.016;-2.260;2023-02-28T05:09:12;23.30;;;7.35;;
44670;SDS011;48397;53.016;-2.260;2023-02-28T05:11:40;11.85;;;5.22;;
44670;SDS011;48397;53.016;-2.260;2023-02-28T05:16:39;15.05;;;5.45;;
44670;SDS011;48397;53.016;-2.260;2023-02-28T05:21:36;21.80;;;8.23;;
44670;SDS011;48397;53.016;-2.260;2023-02-28T05:24:08;20.13;;;7.75;;
44670;SDS011;48397;53.016;-2.260;2023-02-28T05:26:39;22.35;;;7.65;;
44670;SDS011;48397;53.016;-2.260;2023-02-28T05:29:08;10.05;;;4.72;;
44670;SDS011;48397;53.016;-2.260;2023-02-28T05:31:36;14.77;;;6.00;;
44670;SDS011;48397;53.016;-2.260;2023-02-28T05:34:04;10.18;;;5.10;;
44670;SDS011;48397;53.016;-2.260;2023-02-28T05:39:01;15.20;;;5.57;;
44670;SDS011;48397;53.016;-2.260;2023-02-28T05:41:30;12.15;;;4.95;;
44670;SDS011;48397;53.016;-2.260;2023-02-28T05:43:58;21.90;;;7.63;;
44670;SDS011;48397;53.016;-2.260;2023-02-28T05:46:26;17.77;;;7.28;;
44670;SDS011;48397;53.016;-2.260;2023-02-28T05:48:54;12.70;;;4.97;;
44670;SDS011;48397;53.016;-2.260;2023-02-28T05:51:23;17.90;;;6.90;;
44670;SDS011;48397;53.016;-2.260;2023-02-28T05:53:51;11.57;;;4.57;;
44670;SDS011;48397;53.016;-2.260;2023-02-28T05:56:19;18.17;;;5.90;;
44670;SDS011;48397;53.016;-2.260;2023-02-28T05:58:47;10.98;;;4.93;;
44670;SDS011;48397;53.016;-2.260;2023-02-28T06:04:06;21.02;;;7.85;;
44670;SDS011;48397;53.016;-2.260;2023-02-28T06:06:45;20.48;;;7.72;;
44670;SDS011;48397;53.016;-2.260;2023-02-28T06:09:17;11.27;;;5.25;;
44670;SDS011;48397;53.016;-2.260;2023-02-28T06:11:46;21.90;;;7.78;;
44670;SDS011;48397;53.016;-2.260;2023-02-28T06:14:14;8.70;;;4.07;;
44670;SDS011;48397;53.016;-2.260;2023-02-28T06:16:43;17.50;;;6.30;;
44670;SDS011;48397;53.016;-2.260;2023-02-28T06:19:12;19.95;;;8.52;;
44670;SDS011;48397;53.016;-2.260;2023-02-28T06:21:40;10.75;;;4.85;;
44670;SDS011;48397;53.016;-2.260;2023-02-28T06:24:08;20.45;;;8.27;;
44670;SDS011;48397;53.016;-2.260;2023-02-28T06:29:04;23.10;;;8.07;;
44670;SDS011;48397;53.016;-2.260;2023-02-28T06:31:32;24.40;;;7.70;;
44670;SDS011;48397;53.016;-2.260;2023-02-28T06:34:00;16.80;;;6.50;;
44670;SDS011;48397;53.016;-2.260;2023-02-28T06:36:28;17.80;;;4.95;;
44670;SDS011;48397;53.016;-2.260;2023-02-28T06:38:55;17.98;;;6.75;;
44670;SDS011;48397;53.016;-2.260;2023-02-28T06:41:24;15.57;;;5.55;;
44670;SDS011;48397;53.016;-2.260;2023-02-28T06:43:53;19.00;;;7.30;;
44670;SDS011;48397;53.016;-2.260;2023-02-28T06:46:21;24.25;;;8.70;;
44670;SDS011;48397;53.016;-2.260;2023-02-28T06:48:49;16.88;;;6.40;;
44670;SDS011;48397;53.016;-2.260;2023-02-28T06:51:18;21.13;;;8.13;;
44670;SDS011;48397;53.016;-2.260;2023-02-28T06:53:49;14.63;;;4.95;;
44670;SDS011;48397;53.016;-2.260;2023-02-28T06:56:17;15.95;;;4.82;;
44670;SDS011;48397;53.016;-2.260;2023-02-28T06:58:50;12.07;;;4.65;;
44670;SDS011;48397;53.016;-2.260;2023-02-28T07:01:20;10.63;;;3.88;;
44670;SDS011;48397;53.016;-2.260;2023-02-28T07:03:50;20.75;;;7.20;;
44670;SDS011;48397;53.016;-2.260;2023-02-28T07:06:22;17.33;;;7.72;;
44670;SDS011;48397;53.016;-2.260;2023-02-28T07:08:51;14.50;;;6.30;;
44670;SDS011;48397;53.016;-2.260;2023-02-28T07:11:20;16.42;;;6.20;;
44670;SDS011;48397;53.016;-2.260;2023-02-28T07:13:49;13.32;;;5.30;;
44670;SDS011;48397;53.016;-2.260;2023-02-28T07:16:18;12.80;;;5.53;;
44670;SDS011;48397;53.016;-2.260;2023-02-28T07:18:45;18.35;;;7.20;;
44670;SDS011;48397;53.016;-2.260;2023-02-28T07:23:41;19.08;;;7.65;;
44670;SDS011;48397;53.016;-2.260;2023-02-28T07:26:11;10.80;;;4.88;;
44670;SDS011;48397;53.016;-2.260;2023-02-28T07:28:42;16.55;;;6.82;;
44670;SDS011;48397;53.016;-2.260;2023-02-28T07:31:12;17.10;;;7.53;;
44670;SDS011;48397;53.016;-2.260;2023-02-28T07:33:43;10.52;;;4.82;;
44670;SDS011;48397;53.016;-2.260;2023-02-28T07:38:43;10.60;;;4.65;;
44670;SDS011;48397;53.016;-2.260;2023-02-28T07:41:15;14.90;;;6.38;;
44670;SDS011;48397;53.016;-2.260;2023-02-28T07:43:44;15.32;;;6.32;;
44670;SDS011;48397;53.016;-2.260;2023-02-28T07:46:15;13.63;;;5.20;;
44670;SDS011;48397;53.016;-2.260;2023-02-28T07:48:47;9.38;;;6.00;;
44670;SDS011;48397;53.016;-2.260;2023-02-28T07:51:14;15.77;;;6.40;;
44670;SDS011;48397;53.016;-2.260;2023-02-28T07:53:42;16.92;;;8.77;;
44670;SDS011;48397;53.016;-2.260;2023-02-28T07:56:10;15.48;;;6.40;;
44670;SDS011;48397;53.016;-2.260;2023-02-28T07:58:38;16.25;;;6.95;;
44670;SDS011;48397;53.016;-2.260;2023-02-28T08:01:10;11.05;;;4.15;;
44670;SDS011;48397;53.016;-2.260;2023-02-28T08:03:40;13.02;;;5.18;;
44670;SDS011;48397;53.016;-2.260;2023-02-28T08:06:11;16.02;;;7.60;;
44670;SDS011;48397;53.016;-2.260;2023-02-28T08:08:47;8.57;;;4.50;;
44670;SDS011;48397;53.016;-2.260;2023-02-28T08:11:15;13.27;;;5.65;;
44670;SDS011;48397;53.016;-2.260;2023-02-28T08:13:45;16.58;;;6.05;;
44670;SDS011;48397;53.016;-2.260;2023-02-28T08:16:13;9.25;;;4.60;;
44670;SDS011;48397;53.016;-2.260;2023-02-28T08:18:49;14.02;;;5.07;;
44670;SDS011;48397;53.016;-2.260;2023-02-28T08:21:21;13.70;;;4.00;;
44670;SDS011;48397;53.016;-2.260;2023-02-28T08:23:49;11.00;;;4.40;;
44670;SDS011;48397;53.016;-2.260;2023-02-28T08:26:17;10.07;;;4.78;;
44670;SDS011;48397;53.016;-2.260;2023-02-28T08:28:46;14.80;;;6.55;;
44670;SDS011;48397;53.016;-2.260;2023-02-28T08:31:15;14.25;;;6.38;;
44670;SDS011;48397;53.016;-2.260;2023-02-28T08:33:43;11.23;;;4.65;;
44670;SDS011;48397;53.016;-2.260;2023-02-28T08:36:12;9.85;;;4.20;;
44670;SDS011;48397;53.016;-2.260;2023-02-28T08:41:09;10.52;;;4.45;;
44670;SDS011;48397;53.016;-2.260;2023-02-28T08:43:38;5.15;;;3.22;;
44670;SDS011;48397;53.016;-2.260;2023-02-28T08:46:07;9.80;;;3.10;;
44670;SDS011;48397;53.016;-2.260;2023-02-28T08:48:38;8.25;;;4.53;;
44670;SDS011;48397;53.016;-2.260;2023-02-28T08:53:37;12.50;;;6.53;;
44670;SDS011;48397;53.016;-2.260;2023-02-28T08:56:07;9.48;;;4.47;;
44670;SDS011;48397;53.016;-2.260;2023-02-28T08:58:37;13.50;;;5.22;;
44670;SDS011;48397;53.016;-2.260;2023-02-28T09:01:09;8.70;;;3.97;;
44670;SDS011;48397;53.016;-2.260;2023-02-28T09:03:40;8.80;;;4.15;;
44670;SDS011;48397;53.016;-2.260;2023-02-28T09:06:09;8.50;;;3.58;;
44670;SDS011;48397;53.016;-2.260;2023-02-28T09:08:38;6.43;;;2.92;;
44670;SDS011;48397;53.016;-2.260;2023-02-28T09:11:07;9.45;;;2.55;;
44670;SDS011;48397;53.016;-2.260;2023-02-28T09:13:36;9.63;;;3.53;;
44670;SDS011;48397;53.016;-2.260;2023-02-28T09:18:36;7.85;;;4.20;;
44670;SDS011;48397;53.016;-2.260;2023-02-28T09:21:06;5.95;;;2.97;;
44670;SDS011;48397;53.016;-2.260;2023-02-28T09:23:35;5.25;;;2.53;;
44670;SDS011;48397;53.016;-2.260;2023-02-28T09:26:05;7.68;;;4.18;;
44670;SDS011;48397;53.016;-2.260;2023-02-28T09:28:33;7.22;;;3.47;;
44670;SDS011;48397;53.016;-2.260;2023-02-28T09:31:01;10.13;;;4.15;;
44670;SDS011;48397;53.016;-2.260;2023-02-28T09:33:31;4.90;;;2.58;;
44670;SDS011;48397;53.016;-2.260;2023-02-28T09:36:02;6.00;;;3.05;;
44670;SDS011;48397;53.016;-2.260;2023-02-28T09:38:30;6.50;;;3.58;;
44670;SDS011;48397;53.016;-2.260;2023-02-28T09:41:00;7.55;;;3.78;;
44670;SDS011;48397;53.016;-2.260;2023-02-28T09:43:33;6.57;;;3.40;;
44670;SDS011;48397;53.016;-2.260;2023-02-28T09:46:08;5.25;;;3.25;;
44670;SDS011;48397;53.016;-2.260;2023-02-28T09:48:41;4.22;;;2.60;;
44670;SDS011;48397;53.016;-2.260;2023-02-28T09:51:27;8.00;;;2.78;;
44670;SDS011;48397;53.016;-2.260;2023-02-28T09:54:01;6.20;;;2.63;;
44670;SDS011;48397;53.016;-2.260;2023-02-28T09:56:36;8.60;;;2.92;;
44670;SDS011;48397;53.016;-2.260;2023-02-28T10:01:45;3.78;;;2.72;;
44670;SDS011;48397;53.016;-2.260;2023-02-28T10:07:26;4.57;;;2.67;;
44670;SDS011;48397;53.016;-2.260;2023-02-28T10:09:58;4.05;;;2.47;;
44670;SDS011;48397;53.016;-2.260;2023-02-28T10:12:29;3.95;;;1.65;;
44670;SDS011;48397;53.016;-2.260;2023-02-28T10:14:59;6.85;;;2.63;;
44670;SDS011;48397;53.016;-2.260;2023-02-28T10:17:36;6.63;;;2.90;;
44670;SDS011;48397;53.016;-2.260;2023-02-28T10:20:26;2.58;;;1.40;;
44670;SDS011;48397;53.016;-2.260;2023-02-28T10:25:50;3.17;;;1.35;;
44670;SDS011;48397;53.016;-2.260;2023-02-28T10:28:29;3.25;;;1.75;;
44670;SDS011;48397;53.016;-2.260;2023-02-28T10:30:58;2.60;;;1.58;;
44670;SDS011;48397;53.016;-2.260;2023-02-28T10:33:33;2.55;;;1.10;;
44670;SDS011;48397;53.016;-2.260;2023-02-28T10:36:02;3.47;;;1.52;;
44670;SDS011;48397;53.016;-2.260;2023-02-28T10:38:35;2.20;;;1.25;;
44670;SDS011;48397;53.016;-2.260;2023-02-28T10:41:12;4.90;;;2.30;;
44670;SDS011;48397;53.016;-2.260;2023-02-28T10:43:46;2.13;;;1.45;;
44670;SDS011;48397;53.016;-2.260;2023-02-28T10:46:15;5.75;;;2.35;;
44670;SDS011;48397;53.016;-2.260;2023-02-28T10:49:00;2.88;;;1.60;;
44670;SDS011;48397;53.016;-2.260;2023-02-28T10:51:33;4.10;;;2.00;;
44670;SDS011;48397;53.016;-2.260;2023-02-28T10:54:03;3.50;;;1.20;;
44670;SDS011;48397;53.016;-2.260;2023-02-28T10:56:32;5.22;;;1.80;;
44670;SDS011;48397;53.016;-2.260;2023-02-28T10:59:02;2.55;;;1.48;;
44670;SDS011;48397;53.016;-2.260;2023-02-28T11:01:50;3.58;;;1.92;;
44670;SDS011;48397;53.016;-2.260;2023-02-28T11:07:00;2.78;;;1.85;;
44670;SDS011;48397;53.016;-2.260;2023-02-28T11:12:03;3.38;;;1.88;;
44670;SDS011;48397;53.016;-2.260;2023-02-28T11:14:36;4.05;;;1.88;;
44670;SDS011;48397;53.016;-2.260;2023-02-28T11:17:24;1.70;;;1.00;;
44670;SDS011;48397;53.016;-2.260;2023-02-28T11:20:06;2.47;;;1.40;;
44670;SDS011;48397;53.016;-2.260;2023-02-28T11:22:44;1.15;;;0.80;;
44670;SDS011;48397;53.016;-2.260;2023-02-28T11:25:20;2.35;;;1.38;;
44670;SDS011;48397;53.016;-2.260;2023-02-28T11:27:51;1.08;;;0.98;;
44670;SDS011;48397;53.016;-2.260;2023-02-28T11:30:24;1.35;;;0.98;;
44670;SDS011;48397;53.016;-2.260;2023-02-28T11:33:22;1.80;;;0.80;;
44670;SDS011;48397;53.016;-2.260;2023-02-28T11:36:04;2.05;;;0.80;;
44670;SDS011;48397;53.016;-2.260;2023-02-28T11:38:38;2.30;;;1.40;;
44670;SDS011;48397;53.016;-2.260;2023-02-28T11:41:10;4.45;;;1.20;;
44670;SDS011;48397;53.016;-2.260;2023-02-28T11:57:00;3.70;;;1.05;;
44670;SDS011;48397;53.016;-2.260;2023-02-28T12:03:12;1.27;;;0.80;;
44670;SDS011;48397;53.016;-2.260;2023-02-28T12:05:48;1.38;;;1.05;;
44670;SDS011;48397;53.016;-2.260;2023-02-28T12:11:22;2.05;;;0.90;;
44670;SDS011;48397;53.016;-2.260;2023-02-28T12:19:20;1.88;;;1.00;;
44670;SDS011;48397;53.016;-2.260;2023-02-28T12:22:03;0.98;;;0.68;;
44670;SDS011;48397;53.016;-2.260;2023-02-28T12:25:10;1.55;;;0.82;;
44670;SDS011;48397;53.016;-2.260;2023-02-28T12:28:09;1.90;;;0.98;;
44670;SDS011;48397;53.016;-2.260;2023-02-28T12:30:41;1.80;;;1.00;;
44670;SDS011;48397;53.016;-2.260;2023-02-28T12:33:21;2.33;;;1.00;;
44670;SDS011;48397;53.016;-2.260;2023-02-28T12:35:58;2.17;;;1.25;;
44670;SDS011;48397;53.016;-2.260;2023-02-28T12:41:17;1.30;;;1.00;;
44670;SDS011;48397;53.016;-2.260;2023-02-28T12:43:51;1.33;;;1.00;;
44670;SDS011;48397;53.016;-2.260;2023-02-28T12:46:37;2.55;;;1.05;;
44670;SDS011;48397;53.016;-2.260;2023-02-28T12:51:54;3.05;;;1.10;;
44670;SDS011;48397;53.016;-2.260;2023-02-28T12:54:29;3.97;;;1.48;;
44670;SDS011;48397;53.016;-2.260;2023-02-28T12:59:52;1.80;;;0.82;;
44670;SDS011;48397;53.016;-2.260;2023-02-28T13:02:37;1.10;;;0.80;;
44670;SDS011;48397;53.016;-2.260;2023-02-28T13:10:41;0.80;;;0.80;;
44670;SDS011;48397;53.016;-2.260;2023-02-28T13:13:18;1.13;;;1.00;;
44670;SDS011;48397;53.016;-2.260;2023-02-28T13:21:07;4.82;;;1.15;;
44670;SDS011;48397;53.016;-2.260;2023-02-28T13:24:35;2.55;;;1.40;;
44670;SDS011;48397;53.016;-2.260;2023-02-28T13:34:47;2.70;;;1.35;;
44670;SDS011;48397;53.016;-2.260;2023-02-28T13:39:52;1.20;;;0.75;;
44670;SDS011;48397;53.016;-2.260;2023-02-28T13:50:38;0.82;;;0.80;;
44670;SDS011;48397;53.016;-2.260;2023-02-28T13:58:39;2.05;;;0.90;;
44670;SDS011;48397;53.016;-2.260;2023-02-28T14:07:22;3.55;;;0.90;;
44670;SDS011;48397;53.016;-2.260;2023-02-28T14:10:06;3.95;;;1.00;;
44670;SDS011;48397;53.016;-2.260;2023-02-28T14:12:52;1.77;;;0.98;;
44670;SDS011;48397;53.016;-2.260;2023-02-28T14:18:11;1.58;;;0.95;;
44670;SDS011;48397;53.016;-2.260;2023-02-28T14:24:17;2.78;;;1.30;;
44670;SDS011;48397;53.016;-2.260;2023-02-28T14:32:28;2.33;;;1.17;;
44670;SDS011;48397;53.016;-2.260;2023-02-28T14:35:12;3.22;;;1.52;;
44670;SDS011;48397;53.016;-2.260;2023-02-28T14:37:52;3.20;;;1.25;;
44670;SDS011;48397;53.016;-2.260;2023-02-28T14:40:29;3.60;;;1.02;;
44670;SDS011;48397;53.016;-2.260;2023-02-28T14:43:00;2.72;;;1.60;;
44670;SDS011;48397;53.016;-2.260;2023-02-28T14:45:33;2.33;;;1.33;;
44670;SDS011;48397;53.016;-2.260;2023-02-28T14:48:04;1.33;;;0.98;;
44670;SDS011;48397;53.016;-2.260;2023-02-28T14:50:36;1.27;;;1.10;;
44670;SDS011;48397;53.016;-2.260;2023-02-28T14:53:04;2.10;;;1.40;;
44670;SDS011;48397;53.016;-2.260;2023-02-28T14:55:43;2.15;;;1.27;;
44670;SDS011;48397;53.016;-2.260;2023-02-28T15:00:52;2.45;;;1.27;;
44670;SDS011;48397;53.016;-2.260;2023-02-28T15:06:19;1.85;;;1.20;;
44670;SDS011;48397;53.016;-2.260;2023-02-28T15:08:48;2.67;;;1.10;;
44670;SDS011;48397;53.016;-2.260;2023-02-28T15:11:47;1.25;;;1.00;;
44670;SDS011;48397;53.016;-2.260;2023-02-28T15:14:18;1.15;;;0.98;;
44670;SDS011;48397;53.016;-2.260;2023-02-28T15:16:50;4.78;;;1.40;;
44670;SDS011;48397;53.016;-2.260;2023-02-28T15:19:30;0.70;;;0.70;;
44670;SDS011;48397;53.016;-2.260;2023-02-28T15:24:41;2.58;;;0.85;;
44670;SDS011;48397;53.016;-2.260;2023-02-28T15:27:25;3.65;;;1.40;;
44670;SDS011;48397;53.016;-2.260;2023-02-28T15:29:56;2.63;;;1.50;;
44670;SDS011;48397;53.016;-2.260;2023-02-28T15:32:27;2.03;;;1.10;;
44670;SDS011;48397;53.016;-2.260;2023-02-28T15:34:58;1.52;;;1.10;;
44670;SDS011;48397;53.016;-2.260;2023-02-28T15:37:47;2.72;;;1.10;;
44670;SDS011;48397;53.016;-2.260;2023-02-28T15:43:25;1.38;;;0.90;;
44670;SDS011;48397;53.016;-2.260;2023-02-28T15:46:03;1.55;;;1.10;;
44670;SDS011;48397;53.016;-2.260;2023-02-28T15:48:53;2.53;;;1.20;;
44670;SDS011;48397;53.016;-2.260;2023-02-28T15:51:32;1.48;;;1.00;;
44670;SDS011;48397;53.016;-2.260;2023-02-28T15:54:14;1.60;;;1.00;;
44670;SDS011;48397;53.016;-2.260;2023-02-28T15:56:51;1.45;;;0.80;;
44670;SDS011;48397;53.016;-2.260;2023-02-28T15:59:21;1.80;;;1.10;;
44670;SDS011;48397;53.016;-2.260;2023-02-28T16:05:23;2.40;;;1.10;;
44670;SDS011;48397;53.016;-2.260;2023-02-28T16:07:45;1.67;;;0.83;;
44670;SDS011;48397;53.016;-2.260;2023-02-28T16:10:14;1.52;;;0.88;;
44670;SDS011;48397;53.016;-2.260;2023-02-28T16:12:41;1.92;;;0.98;;
44670;SDS011;48397;53.016;-2.260;2023-02-28T16:15:20;2.33;;;1.10;;
44670;SDS011;48397;53.016;-2.260;2023-02-28T16:17:50;1.48;;;0.73;;
44670;SDS011;48397;53.016;-2.260;2023-02-28T16:22:47;2.30;;;0.80;;
44670;SDS011;48397;53.016;-2.260;2023-02-28T16:25:19;1.40;;;0.50;;
44670;SDS011;48397;53.016;-2.260;2023-02-28T16:27:50;1.40;;;0.90;;
44670;SDS011;48397;53.016;-2.260;2023-02-28T16:30:26;1.63;;;1.15;;
44670;SDS011;48397;53.016;-2.260;2023-02-28T16:32:55;2.83;;;1.30;;
44670;SDS011;48397;53.016;-2.260;2023-02-28T16:35:23;4.38;;;1.10;;
44670;SDS011;48397;53.016;-2.260;2023-02-28T16:37:51;3.22;;;1.20;;
44670;SDS011;48397;53.016;-2.260;2023-02-28T16:40:21;1.98;;;1.25;;
44670;SDS011;48397;53.016;-2.260;2023-02-28T16:42:52;1.90;;;1.17;;
44670;SDS011;48397;53.016;-2.260;2023-02-28T16:45:25;1.83;;;1.15;;
44670;SDS011;48397;53.016;-2.260;2023-02-28T16:47:55;0.93;;;0.77;;
44670;SDS011;48397;53.016;-2.260;2023-02-28T16:50:24;1.48;;;1.10;;
44670;SDS011;48397;53.016;-2.260;2023-02-28T16:52:56;1.25;;;0.98;;
44670;SDS011;48397;53.016;-2.260;2023-02-28T16:55:25;3.13;;;1.10;;
44670;SDS011;48397;53.016;-2.260;2023-02-28T16:57:54;1.13;;;0.93;;
44670;SDS011;48397;53.016;-2.260;2023-02-28T17:00:24;3.67;;;1.52;;
44670;SDS011;48397;53.016;-2.260;2023-02-28T17:02:55;5.38;;;1.50;;
44670;SDS011;48397;53.016;-2.260;2023-02-28T17:05:23;2.05;;;0.80;;
44670;SDS011;48397;53.016;-2.260;2023-02-28T17:07:51;5.13;;;1.30;;
44670;SDS011;48397;53.016;-2.260;2023-02-28T17:10:24;6.07;;;1.35;;
44670;SDS011;48397;53.016;-2.260;2023-02-28T17:12:53;2.97;;;0.98;;
44670;SDS011;48397;53.016;-2.260;2023-02-28T17:15:29;1.92;;;1.08;;
44670;SDS011;48397;53.016;-2.260;2023-02-28T17:17:58;1.95;;;1.10;;
44670;SDS011;48397;53.016;-2.260;2023-02-28T17:20:25;3.95;;;1.27;;
44670;SDS011;48397;53.016;-2.260;2023-02-28T17:22:53;2.60;;;1.40;;
44670;SDS011;48397;53.016;-2.260;2023-02-28T17:25:23;2.30;;;1.08;;
44670;SDS011;48397;53.016;-2.260;2023-02-28T17:27:51;1.88;;;1.08;;
44670;SDS011;48397;53.016;-2.260;2023-02-28T17:30:20;1.90;;;1.00;;
44670;SDS011;48397;53.016;-2.260;2023-02-28T17:32:50;1.38;;;1.02;;
44670;SDS011;48397;53.016;-2.260;2023-02-28T17:35:18;2.63;;;1.05;;
44670;SDS011;48397;53.016;-2.260;2023-02-28T17:37:46;2.67;;;1.52;;
44670;SDS011;48397;53.016;-2.260;2023-02-28T17:40:18;3.03;;;1.10;;
44670;SDS011;48397;53.016;-2.260;2023-02-28T17:42:47;2.90;;;1.10;;
44670;SDS011;48397;53.016;-2.260;2023-02-28T17:45:15;3.80;;;1.33;;
44670;SDS011;48397;53.016;-2.260;2023-02-28T17:47:44;1.92;;;1.15;;
44670;SDS011;48397;53.016;-2.260;2023-02-28T17:50:15;4.38;;;1.52;;
44670;SDS011;48397;53.016;-2.260;2023-02-28T17:52:46;3.83;;;2.13;;
44670;SDS011;48397;53.016;-2.260;2023-02-28T17:55:14;3.53;;;1.65;;
44670;SDS011;48397;53.016;-2.260;2023-02-28T17:57:41;3.95;;;1.85;;
44670;SDS011;48397;53.016;-2.260;2023-02-28T18:00:13;7.88;;;1.92;;